EWG7BC LOWI-EDDF
Flight info
| Callsign | EWG7BC |
|---|---|
| Flight time | 0h 44m |
| Altitude | 32000 |
| Route | KOGOL M726 ERNAS T161 DEBHI DEBHI1A |
| Aircraft | B738/M-SDE2E3FGHIRWXY/LB1 |
Departure
| Time | 2026-04-15 13:58 |
|---|---|
| Airport | Innsbruck Airport (LOWI) |
Arrival
| Time | 2026-04-15 14:43 |
|---|---|
| Airport | Frankfurt Main Airport (EDDF) |
| Time | Latitude | Longitude | Altitude | Speed | Heading |
|---|---|---|---|---|---|
| 2026-04-15 13:41 | 47.25833 | 11.35108 | 1897 ft | 0 kts | 171° |
| 2026-04-15 13:52 | 47.25844 | 11.35105 | 1893 ft | 3 kts | 172° |
| 2026-04-15 13:52 | 47.25864 | 11.35103 | 1902 ft | 3 kts | 186° |
| 2026-04-15 13:52 | 47.25880 | 11.35109 | 1902 ft | 3 kts | 230° |
| 2026-04-15 13:53 | 47.25886 | 11.35125 | 1895 ft | 3 kts | 259° |
| 2026-04-15 13:53 | 47.25889 | 11.35154 | 1897 ft | 3 kts | 264° |
| 2026-04-15 13:53 | 47.25890 | 11.35167 | 1891 ft | 0 kts | 261° |
| 2026-04-15 13:55 | 47.25888 | 11.35150 | 1898 ft | 6 kts | 261° |
| 2026-04-15 13:55 | 47.25875 | 11.35029 | 1902 ft | 17 kts | 261° |
| 2026-04-15 13:55 | 47.25858 | 11.34862 | 1906 ft | 19 kts | 261° |
| 2026-04-15 13:56 | 47.25838 | 11.34677 | 1906 ft | 18 kts | 261° |
| 2026-04-15 13:56 | 47.25818 | 11.34496 | 1899 ft | 19 kts | 260° |
| 2026-04-15 13:56 | 47.25798 | 11.34309 | 1902 ft | 18 kts | 261° |
| 2026-04-15 13:56 | 47.25777 | 11.34111 | 1897 ft | 22 kts | 261° |
| 2026-04-15 13:57 | 47.25807 | 11.33888 | 1903 ft | 23 kts | 304° |
| 2026-04-15 13:57 | 47.25891 | 11.33712 | 1900 ft | 18 kts | 303° |
| 2026-04-15 13:57 | 47.25944 | 11.33682 | 1904 ft | 8 kts | 75° |
| 2026-04-15 13:57 | 47.25945 | 11.33691 | 1894 ft | 0 kts | 82° |
| 2026-04-15 13:58 | 47.25947 | 11.33705 | 1896 ft | 16 kts | 82° |
| 2026-04-15 13:58 | 47.26015 | 11.34338 | 1904 ft | 107 kts | 81° |
| 2026-04-15 13:58 | 47.26172 | 11.35780 | 2044 ft | 169 kts | 81° |
| 2026-04-15 13:58 | 47.26399 | 11.37564 | 2969 ft | 186 kts | 77° |
| 2026-04-15 13:59 | 47.26625 | 11.39500 | 4002 ft | 190 kts | 80° |
| 2026-04-15 13:59 | 47.26845 | 11.41553 | 4492 ft | 215 kts | 81° |
| 2026-04-15 13:59 | 47.27086 | 11.43851 | 4809 ft | 236 kts | 82° |
| 2026-04-15 13:59 | 47.27436 | 11.46243 | 5443 ft | 245 kts | 71° |
| 2026-04-15 14:00 | 47.28113 | 11.48654 | 5828 ft | 265 kts | 65° |
| 2026-04-15 14:00 | 47.28886 | 11.51181 | 6595 ft | 272 kts | 66° |
| 2026-04-15 14:00 | 47.29645 | 11.53756 | 7468 ft | 278 kts | 67° |
| 2026-04-15 14:00 | 47.30411 | 11.56416 | 8235 ft | 286 kts | 67° |
| 2026-04-15 14:01 | 47.31970 | 11.61890 | 9416 ft | 291 kts | 68° |
| 2026-04-15 14:01 | 47.32764 | 11.64642 | 9503 ft | 294 kts | 68° |
| 2026-04-15 14:01 | 47.33569 | 11.67427 | 9520 ft | 297 kts | 68° |
| 2026-04-15 14:02 | 47.34380 | 11.70238 | 9524 ft | 297 kts | 68° |
| 2026-04-15 14:02 | 47.35183 | 11.73031 | 9520 ft | 296 kts | 68° |
| 2026-04-15 14:02 | 47.35982 | 11.75822 | 9511 ft | 294 kts | 68° |
| 2026-04-15 14:02 | 47.36766 | 11.78556 | 9514 ft | 292 kts | 67° |
| 2026-04-15 14:03 | 47.37553 | 11.81303 | 9526 ft | 289 kts | 68° |
| 2026-04-15 14:03 | 47.38524 | 11.83941 | 9602 ft | 294 kts | 45° |
| 2026-04-15 14:03 | 47.40278 | 11.85471 | 10265 ft | 301 kts | 14° |
| 2026-04-15 14:03 | 47.42386 | 11.85760 | 10603 ft | 321 kts | 352° |
| 2026-04-15 14:04 | 47.44594 | 11.84796 | 10800 ft | 343 kts | 330° |
| 2026-04-15 14:04 | 47.46575 | 11.82670 | 11017 ft | 363 kts | 315° |
| 2026-04-15 14:04 | 47.48137 | 11.79620 | 11502 ft | 371 kts | 298° |
| 2026-04-15 14:04 | 47.49306 | 11.76265 | 12275 ft | 373 kts | 294° |
| 2026-04-15 14:05 | 47.50438 | 11.72745 | 13108 ft | 375 kts | 295° |
| 2026-04-15 14:05 | 47.51573 | 11.69300 | 13826 ft | 380 kts | 296° |
| 2026-04-15 14:05 | 47.52785 | 11.65788 | 14434 ft | 387 kts | 297° |
| 2026-04-15 14:05 | 47.54068 | 11.62204 | 15070 ft | 391 kts | 298° |
| 2026-04-15 14:06 | 47.55364 | 11.58654 | 15779 ft | 394 kts | 298° |
| 2026-04-15 14:06 | 47.56682 | 11.55075 | 16444 ft | 397 kts | 298° |
| 2026-04-15 14:06 | 47.58009 | 11.51473 | 17104 ft | 400 kts | 298° |
| 2026-04-15 14:06 | 47.59346 | 11.47831 | 17716 ft | 405 kts | 298° |
| 2026-04-15 14:07 | 47.60768 | 11.44214 | 18365 ft | 408 kts | 306° |
| 2026-04-15 14:07 | 47.62843 | 11.41353 | 18869 ft | 412 kts | 328° |
| 2026-04-15 14:07 | 47.65443 | 11.39594 | 19492 ft | 413 kts | 345° |
| 2026-04-15 14:07 | 47.68273 | 11.38928 | 20156 ft | 412 kts | 352° |
| 2026-04-15 14:08 | 47.71062 | 11.37882 | 20684 ft | 416 kts | 341° |
| 2026-04-15 14:08 | 47.73736 | 11.36356 | 21146 ft | 420 kts | 339° |
| 2026-04-15 14:08 | 47.76461 | 11.34748 | 21652 ft | 423 kts | 339° |
| 2026-04-15 14:08 | 47.79208 | 11.33150 | 22197 ft | 424 kts | 340° |
| 2026-04-15 14:09 | 47.81974 | 11.31583 | 22728 ft | 426 kts | 340° |
| 2026-04-15 14:09 | 47.84759 | 11.30041 | 23229 ft | 428 kts | 341° |
| 2026-04-15 14:09 | 47.87568 | 11.28513 | 23716 ft | 431 kts | 341° |
| 2026-04-15 14:09 | 47.90389 | 11.26994 | 24092 ft | 433 kts | 341° |
| 2026-04-15 14:10 | 47.93234 | 11.25469 | 24489 ft | 435 kts | 341° |
| 2026-04-15 14:10 | 47.96083 | 11.23943 | 24951 ft | 435 kts | 341° |
| 2026-04-15 14:10 | 47.98936 | 11.22415 | 25378 ft | 436 kts | 341° |
| 2026-04-15 14:10 | 48.01790 | 11.20883 | 25787 ft | 437 kts | 341° |
| 2026-04-15 14:11 | 48.04655 | 11.19343 | 26172 ft | 438 kts | 341° |
| 2026-04-15 14:11 | 48.07527 | 11.17797 | 26542 ft | 439 kts | 342° |
| 2026-04-15 14:11 | 48.10403 | 11.16247 | 26913 ft | 441 kts | 342° |
| 2026-04-15 14:11 | 48.13294 | 11.14686 | 27241 ft | 442 kts | 341° |
| 2026-04-15 14:12 | 48.16199 | 11.13116 | 27540 ft | 445 kts | 341° |
| 2026-04-15 14:12 | 48.19116 | 11.11538 | 27870 ft | 446 kts | 341° |
| 2026-04-15 14:12 | 48.22029 | 11.09958 | 28344 ft | 444 kts | 341° |
| 2026-04-15 14:12 | 48.24919 | 11.08389 | 28954 ft | 439 kts | 341° |
| 2026-04-15 14:13 | 48.27773 | 11.06837 | 29586 ft | 434 kts | 341° |
| 2026-04-15 14:13 | 48.30602 | 11.05296 | 30151 ft | 431 kts | 341° |
| 2026-04-15 14:13 | 48.33410 | 11.03766 | 30576 ft | 429 kts | 341° |
| 2026-04-15 14:13 | 48.36215 | 11.02236 | 30942 ft | 428 kts | 341° |
| 2026-04-15 14:14 | 48.39013 | 11.00709 | 31309 ft | 427 kts | 341° |
| 2026-04-15 14:14 | 48.41800 | 10.99186 | 31651 ft | 426 kts | 341° |
| 2026-04-15 14:14 | 48.44583 | 10.97664 | 31992 ft | 426 kts | 341° |
| 2026-04-15 14:14 | 48.47367 | 10.96139 | 32213 ft | 427 kts | 341° |
| 2026-04-15 14:15 | 48.49227 | 10.95120 | 32192 ft | 429 kts | 341° |
| 2026-04-15 14:15 | 48.54832 | 10.92043 | 32213 ft | 427 kts | 341° |
| 2026-04-15 14:16 | 48.60377 | 10.88983 | 32194 ft | 424 kts | 341° |
| 2026-04-15 14:16 | 48.65915 | 10.85924 | 32210 ft | 424 kts | 341° |
| 2026-04-15 14:17 | 48.71463 | 10.82856 | 32224 ft | 425 kts | 341° |
| 2026-04-15 14:17 | 48.77022 | 10.79777 | 32230 ft | 426 kts | 341° |
| 2026-04-15 14:18 | 48.82593 | 10.76684 | 32233 ft | 427 kts | 340° |
| 2026-04-15 14:18 | 48.88171 | 10.73579 | 32239 ft | 428 kts | 340° |
| 2026-04-15 14:19 | 48.93773 | 10.70454 | 32236 ft | 429 kts | 340° |
| 2026-04-15 14:19 | 48.99368 | 10.67325 | 32245 ft | 429 kts | 340° |
| 2026-04-15 14:20 | 49.04970 | 10.64185 | 32254 ft | 429 kts | 340° |
| 2026-04-15 14:20 | 49.07766 | 10.62615 | 32106 ft | 431 kts | 340° |
| 2026-04-15 14:20 | 49.10613 | 10.61015 | 31426 ft | 435 kts | 340° |
| 2026-04-15 14:20 | 49.13444 | 10.59422 | 30678 ft | 433 kts | 340° |
| 2026-04-15 14:21 | 49.16277 | 10.57825 | 29808 ft | 434 kts | 340° |
| 2026-04-15 14:21 | 49.19113 | 10.56226 | 28864 ft | 435 kts | 340° |
| 2026-04-15 14:21 | 49.21939 | 10.54630 | 27927 ft | 436 kts | 339° |
| 2026-04-15 14:21 | 49.24798 | 10.53015 | 26959 ft | 438 kts | 339° |
| 2026-04-15 14:22 | 49.27657 | 10.51397 | 26221 ft | 435 kts | 339° |
| 2026-04-15 14:22 | 49.30484 | 10.49794 | 25529 ft | 432 kts | 339° |
| 2026-04-15 14:22 | 49.33250 | 10.48055 | 24857 ft | 429 kts | 332° |
| 2026-04-15 14:22 | 49.35765 | 10.45630 | 24229 ft | 425 kts | 323° |
| 2026-04-15 14:23 | 49.37972 | 10.42816 | 24046 ft | 416 kts | 317° |
| 2026-04-15 14:23 | 49.40146 | 10.39756 | 23827 ft | 432 kts | 317° |
| 2026-04-15 14:23 | 49.42370 | 10.36567 | 23607 ft | 442 kts | 316° |
| 2026-04-15 14:23 | 49.44624 | 10.33332 | 23326 ft | 443 kts | 317° |
| 2026-04-15 14:24 | 49.46867 | 10.30126 | 23059 ft | 439 kts | 316° |
| 2026-04-15 14:24 | 49.49107 | 10.26938 | 22787 ft | 438 kts | 316° |
| 2026-04-15 14:24 | 49.51347 | 10.23761 | 22515 ft | 437 kts | 317° |
| 2026-04-15 14:24 | 49.53581 | 10.20594 | 22262 ft | 436 kts | 316° |
| 2026-04-15 14:25 | 49.55812 | 10.17430 | 22003 ft | 435 kts | 316° |
| 2026-04-15 14:25 | 49.58034 | 10.14277 | 21744 ft | 434 kts | 316° |
| 2026-04-15 14:25 | 49.60253 | 10.11121 | 21488 ft | 433 kts | 316° |
| 2026-04-15 14:25 | 49.62463 | 10.07974 | 21230 ft | 432 kts | 316° |
| 2026-04-15 14:26 | 49.64661 | 10.04840 | 20971 ft | 428 kts | 316° |
| 2026-04-15 14:26 | 49.66809 | 10.01776 | 20661 ft | 414 kts | 316° |
| 2026-04-15 14:26 | 49.68914 | 9.98765 | 20031 ft | 410 kts | 316° |
| 2026-04-15 14:26 | 49.71000 | 9.95800 | 19423 ft | 408 kts | 317° |
| 2026-04-15 14:27 | 49.73278 | 9.93193 | 18836 ft | 406 kts | 327° |
| 2026-04-15 14:27 | 49.75727 | 9.91050 | 18251 ft | 403 kts | 329° |
| 2026-04-15 14:27 | 49.78164 | 9.88966 | 17643 ft | 398 kts | 329° |
| 2026-04-15 14:27 | 49.80555 | 9.86908 | 17064 ft | 386 kts | 329° |
| 2026-04-15 14:28 | 49.82847 | 9.84909 | 16553 ft | 371 kts | 328° |
| 2026-04-15 14:28 | 49.85069 | 9.82949 | 16038 ft | 366 kts | 328° |
| 2026-04-15 14:28 | 49.87272 | 9.80995 | 15564 ft | 364 kts | 328° |
| 2026-04-15 14:28 | 49.89460 | 9.79058 | 15087 ft | 362 kts | 329° |
| 2026-04-15 14:29 | 49.91661 | 9.77221 | 14701 ft | 357 kts | 330° |
| 2026-04-15 14:29 | 49.93847 | 9.75451 | 14312 ft | 352 kts | 331° |
| 2026-04-15 14:29 | 49.96005 | 9.73696 | 13926 ft | 348 kts | 330° |
| 2026-04-15 14:29 | 49.98133 | 9.71951 | 13504 ft | 344 kts | 330° |
| 2026-04-15 14:30 | 50.00224 | 9.70164 | 13117 ft | 342 kts | 326° |
| 2026-04-15 14:30 | 50.02137 | 9.68010 | 12802 ft | 338 kts | 320° |
| 2026-04-15 14:30 | 50.03975 | 9.65734 | 12491 ft | 337 kts | 319° |
| 2026-04-15 14:30 | 50.05790 | 9.63462 | 12167 ft | 330 kts | 319° |
| 2026-04-15 14:31 | 50.07551 | 9.61271 | 11861 ft | 319 kts | 319° |
| 2026-04-15 14:31 | 50.09264 | 9.59154 | 11567 ft | 310 kts | 319° |
| 2026-04-15 14:31 | 50.10933 | 9.57101 | 11282 ft | 301 kts | 320° |
| 2026-04-15 14:31 | 50.12550 | 9.55118 | 11007 ft | 292 kts | 320° |
| 2026-04-15 14:32 | 50.14136 | 9.53174 | 10745 ft | 288 kts | 320° |
| 2026-04-15 14:32 | 50.15705 | 9.51253 | 10489 ft | 285 kts | 320° |
| 2026-04-15 14:32 | 50.17250 | 9.49360 | 10239 ft | 282 kts | 320° |
| 2026-04-15 14:32 | 50.18789 | 9.47471 | 9975 ft | 280 kts | 319° |
| 2026-04-15 14:33 | 50.20313 | 9.45598 | 9690 ft | 278 kts | 320° |
| 2026-04-15 14:33 | 50.21757 | 9.43680 | 9414 ft | 274 kts | 308° |
| 2026-04-15 14:33 | 50.22590 | 9.41094 | 9178 ft | 265 kts | 279° |
| 2026-04-15 14:33 | 50.22619 | 9.38266 | 8940 ft | 260 kts | 257° |
| 2026-04-15 14:34 | 50.22109 | 9.35550 | 8707 ft | 262 kts | 249° |
| 2026-04-15 14:34 | 50.21475 | 9.32867 | 8455 ft | 265 kts | 248° |
| 2026-04-15 14:34 | 50.20818 | 9.30177 | 8204 ft | 265 kts | 248° |
| 2026-04-15 14:34 | 50.20177 | 9.27490 | 7965 ft | 264 kts | 249° |
| 2026-04-15 14:35 | 50.19545 | 9.24802 | 7705 ft | 263 kts | 249° |
| 2026-04-15 14:35 | 50.18922 | 9.22128 | 7474 ft | 262 kts | 249° |
| 2026-04-15 14:35 | 50.18303 | 9.19461 | 7232 ft | 261 kts | 249° |
| 2026-04-15 14:35 | 50.17686 | 9.16805 | 7003 ft | 260 kts | 249° |
| 2026-04-15 14:36 | 50.17068 | 9.14151 | 6764 ft | 260 kts | 248° |
| 2026-04-15 14:36 | 50.16455 | 9.11513 | 6510 ft | 259 kts | 249° |
| 2026-04-15 14:36 | 50.15865 | 9.08873 | 6255 ft | 256 kts | 249° |
| 2026-04-15 14:36 | 50.15280 | 9.06261 | 6001 ft | 254 kts | 249° |
| 2026-04-15 14:37 | 50.14688 | 9.03683 | 5752 ft | 251 kts | 249° |
| 2026-04-15 14:37 | 50.14095 | 9.01140 | 5542 ft | 248 kts | 249° |
| 2026-04-15 14:37 | 50.13503 | 8.98625 | 5295 ft | 246 kts | 248° |
| 2026-04-15 14:37 | 50.12907 | 8.96108 | 4990 ft | 247 kts | 248° |
| 2026-04-15 14:38 | 50.12327 | 8.93658 | 4913 ft | 234 kts | 248° |
| 2026-04-15 14:38 | 50.11787 | 8.91347 | 4777 ft | 221 kts | 249° |
| 2026-04-15 14:38 | 50.11289 | 8.89101 | 4471 ft | 216 kts | 249° |
| 2026-04-15 14:38 | 50.10785 | 8.86928 | 4166 ft | 210 kts | 248° |
| 2026-04-15 14:39 | 50.10280 | 8.84819 | 3880 ft | 205 kts | 248° |
| 2026-04-15 14:39 | 50.09789 | 8.82780 | 3609 ft | 196 kts | 248° |
| 2026-04-15 14:39 | 50.09328 | 8.80868 | 3377 ft | 183 kts | 248° |
| 2026-04-15 14:39 | 50.08890 | 8.79047 | 3118 ft | 175 kts | 247° |
| 2026-04-15 14:40 | 50.08466 | 8.77287 | 2895 ft | 173 kts | 248° |
| 2026-04-15 14:40 | 50.08042 | 8.75523 | 2665 ft | 174 kts | 248° |
| 2026-04-15 14:40 | 50.07620 | 8.73757 | 2423 ft | 173 kts | 249° |
| 2026-04-15 14:40 | 50.07344 | 8.71916 | 2106 ft | 175 kts | 259° |
| 2026-04-15 14:41 | 50.07189 | 8.70073 | 1954 ft | 170 kts | 259° |
| 2026-04-15 14:41 | 50.06903 | 8.68286 | 1765 ft | 168 kts | 249° |
| 2026-04-15 14:41 | 50.06502 | 8.66674 | 1600 ft | 152 kts | 244° |
| 2026-04-15 14:41 | 50.06074 | 8.65148 | 1383 ft | 152 kts | 245° |
| 2026-04-15 14:42 | 50.05674 | 8.63621 | 1112 ft | 152 kts | 249° |
| 2026-04-15 14:42 | 50.05315 | 8.62069 | 859 ft | 152 kts | 250° |
| 2026-04-15 14:42 | 50.04947 | 8.60535 | 661 ft | 151 kts | 251° |
| 2026-04-15 14:42 | 50.04590 | 8.59004 | 430 ft | 150 kts | 251° |
| 2026-04-15 14:43 | 50.04240 | 8.57520 | 351 ft | 137 kts | 250° |
| 2026-04-15 14:43 | 50.03943 | 8.56311 | 347 ft | 92 kts | 250° |
| 2026-04-15 14:43 | 50.03888 | 8.55832 | 345 ft | 21 kts | 282° |
| 2026-04-15 14:43 | 50.03912 | 8.55664 | 347 ft | 13 kts | 302° |
| 2026-04-15 14:44 | 50.03933 | 8.55639 | 353 ft | 0 kts | 338° |
| 2026-04-15 14:44 | 50.03934 | 8.55639 | 353 ft | 1 kts | 339° |
| 2026-04-15 14:45 | 50.03964 | 8.55643 | 347 ft | 5 kts | 25° |
| 2026-04-15 14:45 | 50.04001 | 8.55751 | 351 ft | 17 kts | 70° |
| 2026-04-15 14:45 | 50.04046 | 8.55939 | 348 ft | 19 kts | 70° |
| 2026-04-15 14:45 | 50.04088 | 8.56120 | 352 ft | 17 kts | 69° |
| 2026-04-15 14:46 | 50.04130 | 8.56292 | 348 ft | 17 kts | 69° |
| 2026-04-15 14:46 | 50.04170 | 8.56458 | 350 ft | 16 kts | 71° |
| 2026-04-15 14:46 | 50.04208 | 8.56619 | 348 ft | 15 kts | 69° |
| 2026-04-15 14:46 | 50.04248 | 8.56770 | 348 ft | 15 kts | 52° |
| 2026-04-15 14:47 | 50.04340 | 8.56826 | 345 ft | 14 kts | 11° |
| 2026-04-15 14:47 | 50.04367 | 8.56834 | 349 ft | 0 kts | 12° |
| 2026-04-15 14:49 | 50.04383 | 8.56840 | 345 ft | 8 kts | 11° |
| 2026-04-15 14:49 | 50.04476 | 8.56863 | 345 ft | 18 kts | 13° |
| 2026-04-15 14:49 | 50.04598 | 8.56908 | 351 ft | 18 kts | 13° |
| 2026-04-15 14:50 | 50.04707 | 8.56975 | 350 ft | 16 kts | 25° |
| 2026-04-15 14:50 | 50.04806 | 8.57043 | 345 ft | 13 kts | 24° |
| 2026-04-15 14:50 | 50.04841 | 8.57088 | 348 ft | 3 kts | 92° |
| 2026-04-15 14:50 | 50.04831 | 8.57123 | 352 ft | 4 kts | 114° |
| 2026-04-15 14:51 | 50.04818 | 8.57169 | 347 ft | 5 kts | 114° |